Meteógrafos Informações Meteorológicas em tempo real
Aeroporto Santa Genoveva
15-12-2019 23:56

Temperatura atual: 26 graus 78 F    Umidade relativa: 65 %
Velocidade do vento: 04 nós 7 Km/h    Direção: ND graus ND
Ajuste do altímetro ..: 1017 HPA
Visibilidade: Ótima    Tempo presente: Trovoadas na vizinhança

Observação
Poucas nuvens a 4500 Pés., Nuvens esparsas a 8000 Pés.
Data Hora BRTTempo°CUmidadePressãoVentoVisib.
15/12 - 23:56   Trovoadas na vizinhança 26° 65% 1017 /7 km/h OK
15/12 - 22:56   Céu Limpo 27° 58% 1017 Leste/10 km/h OK
15/12 - 21:56   Não Disponível 26° 65% 1016 Leste/14 km/h OK
15/12 - 20:56   Não Disponível 28° 58% 1015 Leste/14 km/h OK
15/12 - 19:56   Chovendo na vizinhança 29° 54% 1014 Leste/14 km/h OK
15/12 - 18:56   Não Disponível 31° 46% 1014 Leste/18 km/h OK
15/12 - 17:55   Não Disponível 31° 43% 1014 Leste/18 km/h OK
15/12 - 16:56   Poucas nuvens esparsas 32° 40% 1015 Nordeste/14 km/h OK
15/12 - 15:56   Poucas nuvens esparsas 32° 43% 1015 Este-nordeste/12 km/h OK
15/12 - 14:56   Poucas nuvens esparsas 32° 46% 1015 Nordeste/14 km/h OK
15/12 - 13:56   Não Disponível 31° 49% 1016 Nordeste/16 km/h OK
15/12 - 12:56   Não Disponível 31° 49% 1017 Leste/25 km/h 9999
15/12 - 11:56   Não Disponível 30° 51% 1018 Nordeste/21 km/h 9999
15/12 - 10:56   Céu Limpo 28° 58% 1018 Leste/23 km/h OK
15/12 - 09:56   Céu Limpo 27° 58% 1018 Este-nordeste/21 km/h CAVO
15/12 - 08:56   Céu Limpo 23° 78% 1018 Sudeste/9 km/h OK
15/12 - 07:56   Céu Limpo 21° 88% 1017 Sudeste/7 km/h OK
15/12 - 06:56   Céu Limpo 19° 93% 1017 Este-sudeste/9 km/h OK
15/12 - 05:56   Céu Limpo 20° 93% 1016 Sudeste/3 km/h OK
15/12 - 04:56   Céu Limpo 20° 93% 1016 Norte/0 km/h OK
15/12 - 03:56   Céu Limpo 20° 93% 1016 Norte/3 km/h OK
15/12 - 02:56   Céu Limpo 21° 88% 1016 Este-nordeste/3 km/h OK
15/12 - 01:56   Céu Limpo 22° 88% 1017 Sudeste/3 km/h OK
15/12 - 00:56   Céu Limpo 24° 73% 1017 Este-sudeste/5 km/h OK

Termo de Uso  |   Links Úteis  |   Imprensa  |  Anuncie  |  Fale Conosco  |  Versão Celular  |   Política de Privacidade

Apolo11.com - Todos os direitos reservados - 2000 - 2019

"Existem velas que iluminam tudo, menos o próprio candelabro" - Hebbel